Time;durP1;ratioP1;P1;durP2;ratioP2;P2;SDS_P1;SDS_P2;PMS_P1;PMS_P2;Temp;Humidity;BMP_temperature;BMP_pressure;BME280_temperature;BME280_humidity;BME280_pressure;Samples;Min_cycle;Max_cycle;Signal;HPM_P1;HPM_P2
2022/02/16 00:00:13;0.00;0.00;0.62;0.00;0.00;0.62;1.40;0.93;;;21.60;24.60;;;;;;2245850;61;20432;-63
2022/02/16 00:02:57;0.00;0.00;0.62;0.00;0.00;0.62;1.87;1.03;;;21.50;24.50;;;;;;2245931;61;20401;-63
2022/02/16 00:05:42;0.00;0.00;0.62;0.00;0.00;0.62;1.83;1.10;;;21.50;24.50;;;;;;2245953;61;20389;-62
2022/02/16 00:08:27;0.00;0.00;0.62;0.00;0.00;0.62;1.50;1.00;;;21.50;24.60;;;;;;2245746;61;20398;-62
2022/02/16 00:11:13;0.00;0.00;0.62;0.00;0.00;0.62;2.10;1.10;;;21.40;24.50;;;;;;2245751;61;20448;-62
2022/02/16 00:13:58;0.00;0.00;0.62;0.00;0.00;0.62;1.60;1.10;;;21.40;24.40;;;;;;2246101;61;20858;-62
2022/02/16 00:16:42;0.00;0.00;0.62;0.00;0.00;0.62;1.70;1.00;;;21.30;24.20;;;;;;2245733;61;20369;-62
2022/02/16 00:19:27;0.00;0.00;0.62;0.00;0.00;0.62;3.30;1.50;;;21.20;24.20;;;;;;2245482;61;20617;-62
2022/02/16 00:22:12;0.00;0.00;0.62;0.00;0.00;0.62;2.03;1.30;;;21.10;24.10;;;;;;2245830;61;20368;-61
2022/02/16 00:24:57;0.00;0.00;0.62;0.00;0.00;0.62;2.23;1.07;;;21.00;24.10;;;;;;2246157;61;20706;-62
2022/02/16 00:27:42;0.00;0.00;0.62;0.00;0.00;0.62;1.60;1.17;;;20.90;24.10;;;;;;2245539;61;20393;-61
2022/02/16 00:30:26;0.00;0.00;0.62;0.00;0.00;0.62;2.27;1.30;;;20.80;24.10;;;;;;2245916;61;20389;-61
2022/02/16 00:33:11;0.00;0.00;0.62;0.00;0.00;0.62;1.60;1.07;;;20.70;24.00;;;;;;2245215;61;20797;-62
2022/02/16 00:35:55;0.00;0.00;0.62;0.00;0.00;0.62;1.60;1.10;;;20.60;24.10;;;;;;2245781;61;20429;-62
2022/02/16 00:38:40;0.00;0.00;0.62;0.00;0.00;0.62;3.00;1.30;;;20.50;24.20;;;;;;2245101;61;20374;-62
2022/02/16 00:41:26;0.00;0.00;0.62;0.00;0.00;0.62;2.17;0.90;;;20.40;24.30;;;;;;2245510;61;20345;-62
2022/02/16 00:44:12;0.00;0.00;0.62;0.00;0.00;0.62;2.23;1.00;;;20.30;24.30;;;;;;2245747;61;20369;-61
2022/02/16 00:46:56;0.00;0.00;0.62;0.00;0.00;0.62;2.20;1.03;;;20.20;24.40;;;;;;2245464;61;20417;-61
2022/02/16 00:49:41;0.00;0.00;0.62;0.00;0.00;0.62;1.33;1.00;;;20.10;24.50;;;;;;2244960;61;20381;-61
2022/02/16 00:52:26;0.00;0.00;0.62;0.00;0.00;0.62;2.00;1.27;;;20.00;24.50;;;;;;2245386;61;20357;-61
2022/02/16 00:55:10;0.00;0.00;0.62;0.00;0.00;0.62;1.67;0.97;;;19.90;24.50;;;;;;2245626;61;20373;-61
2022/02/16 00:57:56;0.00;0.00;0.62;0.00;0.00;0.62;2.33;1.03;;;19.90;24.60;;;;;;2245421;61;20358;-61
2022/02/16 01:00:43;0.00;0.00;0.62;0.00;0.00;0.62;2.57;1.20;;;19.80;24.60;;;;;;2245400;61;20369;-61
2022/02/16 01:03:28;0.00;0.00;0.62;0.00;0.00;0.62;2.03;1.10;;;19.70;24.70;;;;;;2244848;61;20381;-60
2022/02/16 01:06:13;0.00;0.00;0.62;0.00;0.00;0.62;2.83;1.10;;;19.60;24.70;;;;;;2245872;61;20435;-60
2022/02/16 01:08:57;0.00;0.00;0.62;0.00;0.00;0.62;1.97;1.00;;;19.50;24.70;;;;;;2245310;61;20413;-60
2022/02/16 01:11:42;0.00;0.00;0.62;0.00;0.00;0.62;1.67;1.10;;;19.50;24.90;;;;;;2247225;61;20433;-62
2022/02/16 01:14:27;0.00;0.00;0.62;0.00;0.00;0.62;2.00;0.90;;;19.40;24.90;;;;;;2245456;61;20660;-60
2022/02/16 01:17:31;0.00;0.00;0.62;0.00;0.00;0.62;1.80;1.10;;;19.30;25.00;;;;;;2245354;61;20565;-61
2022/02/16 01:20:29;0.00;0.00;0.62;0.00;0.00;0.62;3.03;1.03;;;19.20;25.00;;;;;;2245570;61;20361;-61
2022/02/16 01:23:28;0.00;0.00;0.62;0.00;0.00;0.62;3.30;1.30;;;19.20;25.10;;;;;;2245315;61;20365;-60
2022/02/16 01:26:13;0.00;0.00;0.62;0.00;0.00;0.62;2.10;0.87;;;19.10;25.10;;;;;;2245072;61;20417;-61
2022/02/16 01:29:04;0.00;0.00;0.62;0.00;0.00;0.62;2.10;1.00;;;19.00;25.20;;;;;;2245384;61;20425;-60
2022/02/16 01:31:56;0.00;0.00;0.62;0.00;0.00;0.62;1.70;1.10;;;18.90;25.20;;;;;;2244989;61;20581;-60
2022/02/16 01:34:43;0.00;0.00;0.62;0.00;0.00;0.62;1.97;1.10;;;18.90;25.30;;;;;;2245080;61;20443;-60
2022/02/16 01:37:28;0.00;0.00;0.62;0.00;0.00;0.62;1.70;0.90;;;18.90;25.40;;;;;;2245315;61;20397;-60
2022/02/16 01:40:16;0.00;0.00;0.62;0.00;0.00;0.62;1.80;1.00;;;18.80;25.50;;;;;;2244959;61;20389;-60
2022/02/16 01:43:03;0.00;0.00;0.62;0.00;0.00;0.62;1.90;1.00;;;18.70;25.50;;;;;;2245573;61;20365;-62
2022/02/16 01:45:56;0.00;0.00;0.62;0.00;0.00;0.62;1.73;1.17;;;18.70;25.60;;;;;;2245155;61;20365;-62
2022/02/16 01:48:44;0.00;0.00;0.62;0.00;0.00;0.62;3.20;1.10;;;18.60;25.60;;;;;;2244305;61;20393;-60
2022/02/16 01:51:29;0.00;0.00;0.62;0.00;0.00;0.62;1.83;1.30;;;18.50;25.60;;;;;;2245338;61;20673;-60
2022/02/16 01:54:14;0.00;0.00;0.62;0.00;0.00;0.62;1.30;0.83;;;18.50;25.50;;;;;;2244841;61;20573;-60
2022/02/16 01:57:00;0.00;0.00;0.62;0.00;0.00;0.62;1.90;1.00;;;18.50;25.50;;;;;;2245075;61;20381;-62
2022/02/16 01:59:54;0.00;0.00;0.62;0.00;0.00;0.62;1.87;1.10;;;18.40;25.70;;;;;;2245019;61;20812;-62
2022/02/16 02:02:57;0.00;0.00;0.62;0.00;0.00;0.62;1.53;0.97;;;18.40;26.00;;;;;;2245232;61;20385;-61
2022/02/16 02:05:54;0.00;0.00;0.62;0.00;0.00;0.62;1.80;0.90;;;18.30;25.80;;;;;;2245270;61;20393;-61
2022/02/16 02:08:41;0.00;0.00;0.62;0.00;0.00;0.62;1.83;1.20;;;18.30;26.00;;;;;;2244393;61;20607;-61
2022/02/16 02:11:26;0.00;0.00;0.62;0.00;0.00;0.62;1.40;1.00;;;18.20;26.00;;;;;;2245126;61;20756;-61
2022/02/16 02:14:16;0.00;0.00;0.62;0.00;0.00;0.62;2.60;1.00;;;18.20;26.20;;;;;;2245135;61;20350;-59
2022/02/16 02:17:10;0.00;0.00;0.62;0.00;0.00;0.62;1.50;0.80;;;18.10;26.20;;;;;;2244961;61;20636;-60
2022/02/16 02:19:55;0.00;0.00;0.62;0.00;0.00;0.62;1.50;1.07;;;18.10;26.20;;;;;;2245457;61;20373;-61
2022/02/16 02:22:40;0.00;0.00;0.62;0.00;0.00;0.62;4.07;1.10;;;18.10;26.30;;;;;;2244952;61;20361;-61
2022/02/16 02:25:26;0.00;0.00;0.62;0.00;0.00;0.62;2.37;1.07;;;18.10;26.40;;;;;;2244742;61;20385;-62
2022/02/16 02:28:11;0.00;0.00;0.62;0.00;0.00;0.62;1.40;1.00;;;18.00;26.40;;;;;;2245104;61;20794;-61
2022/02/16 02:30:56;0.00;0.00;0.62;0.00;0.00;0.62;1.50;0.80;;;18.00;26.40;;;;;;2244946;61;20409;-60
2022/02/16 02:33:42;0.00;0.00;0.62;0.00;0.00;0.62;1.60;0.80;;;18.00;26.50;;;;;;2245402;61;20442;-62
2022/02/16 02:36:27;0.00;0.00;0.62;0.00;0.00;0.62;1.77;1.07;;;17.90;26.50;;;;;;2245188;61;20397;-62
2022/02/16 02:39:13;0.00;0.00;0.62;0.00;0.00;0.62;3.27;1.07;;;17.90;26.50;;;;;;2244627;61;20377;-62
2022/02/16 02:41:59;0.00;0.00;0.62;0.00;0.00;0.62;3.90;0.80;;;17.90;26.80;;;;;;2245426;61;20361;-61
2022/02/16 02:44:44;0.00;0.00;0.62;0.00;0.00;0.62;1.40;0.80;;;17.90;26.70;;;;;;2244910;61;20401;-61
2022/02/16 02:47:29;0.00;0.00;0.62;0.00;0.00;0.62;1.97;1.07;;;17.90;26.80;;;;;;2244882;61;20424;-60
2022/02/16 02:50:14;0.00;0.00;0.62;0.00;0.00;0.62;2.70;1.00;;;17.90;26.80;;;;;;2245223;61;20377;-62
2022/02/16 02:52:58;0.00;0.00;0.62;0.00;0.00;0.62;1.60;0.80;;;17.80;26.80;;;;;;2247602;61;20369;-61
2022/02/16 02:55:45;0.00;0.00;0.62;0.00;0.00;0.62;1.40;0.83;;;17.80;26.90;;;;;;2244807;61;20773;-61
2022/02/16 02:58:30;0.00;0.00;0.62;0.00;0.00;0.62;2.27;1.30;;;17.90;27.00;;;;;;2244920;61;20404;-61
2022/02/16 03:01:15;0.00;0.00;0.62;0.00;0.00;0.62;2.13;1.10;;;17.80;26.90;;;;;;2244851;61;20437;-60
2022/02/16 03:04:06;0.00;0.00;0.62;0.00;0.00;0.62;1.60;0.90;;;17.80;27.00;;;;;;2245238;61;20365;-63
2022/02/16 03:06:52;0.00;0.00;0.62;0.00;0.00;0.62;3.20;1.93;;;17.80;27.00;;;;;;2244718;61;20385;-62
2022/02/16 03:09:38;0.00;0.00;0.62;0.00;0.00;0.62;2.13;0.93;;;17.80;27.10;;;;;;2244618;61;20737;-62
2022/02/16 03:12:24;0.00;0.00;0.62;0.00;0.00;0.62;2.17;0.90;;;17.70;27.00;;;;;;2245404;61;20701;-60
2022/02/16 03:15:09;0.00;0.00;0.62;0.00;0.00;0.62;1.80;0.87;;;17.70;27.10;;;;;;2245416;61;20381;-60
2022/02/16 03:17:59;0.00;0.00;0.62;0.00;0.00;0.62;1.80;1.07;;;17.70;27.10;;;;;;2244798;61;20349;-62
2022/02/16 03:20:44;0.00;0.00;0.62;0.00;0.00;0.62;1.40;0.80;;;17.70;27.20;;;;;;2244931;61;20358;-60
2022/02/16 03:23:28;0.00;0.00;0.62;0.00;0.00;0.62;1.70;1.13;;;17.70;27.20;;;;;;2244664;61;20365;-60
2022/02/16 03:26:14;0.00;0.00;0.62;0.00;0.00;0.62;1.50;0.70;;;17.70;27.20;;;;;;2245139;61;20358;-60
2022/02/16 03:28:59;0.00;0.00;0.62;0.00;0.00;0.62;1.47;0.90;;;17.70;27.30;;;;;;2244978;61;20385;-62
2022/02/16 03:31:48;0.00;0.00;0.62;0.00;0.00;0.62;1.70;0.90;;;17.70;27.30;;;;;;2244526;61;20349;-60
2022/02/16 03:34:33;0.00;0.00;0.62;0.00;0.00;0.62;1.87;1.47;;;17.60;27.30;;;;;;2245335;61;20629;-60
2022/02/16 03:37:18;0.00;0.00;0.62;0.00;0.00;0.62;1.83;1.20;;;17.60;27.30;;;;;;2245550;61;20373;-60
2022/02/16 03:40:04;0.00;0.00;0.62;0.00;0.00;0.62;1.60;0.87;;;17.60;27.30;;;;;;2245252;61;20377;-60
2022/02/16 03:42:50;0.00;0.00;0.62;0.00;0.00;0.62;3.53;1.10;;;17.60;27.40;;;;;;2248329;61;20401;-60
2022/02/16 03:45:36;0.00;0.00;0.62;0.00;0.00;0.62;2.23;1.07;;;17.50;27.30;;;;;;2245367;61;20409;-61
2022/02/16 03:48:20;0.00;0.00;0.62;0.00;0.00;0.62;2.03;1.00;;;17.50;27.30;;;;;;2245197;61;20481;-61
2022/02/16 03:51:06;0.00;0.00;0.62;0.00;0.00;0.62;2.70;1.20;;;17.50;27.40;;;;;;2245562;61;20420;-60
2022/02/16 03:53:51;0.00;0.00;0.62;0.00;0.00;0.62;2.00;1.27;;;17.50;27.40;;;;;;2245382;61;20361;-61
2022/02/16 03:56:35;0.00;0.00;0.62;0.00;0.00;0.62;1.30;0.90;;;17.50;27.40;;;;;;2245474;61;20745;-60
2022/02/16 03:59:21;0.00;0.00;0.62;0.00;0.00;0.62;1.50;0.90;;;17.40;27.40;;;;;;2245216;61;20381;-60
2022/02/16 04:02:39;0.00;0.00;0.62;0.00;0.00;0.62;1.50;0.87;;;17.40;27.40;;;;;;2245521;61;20361;-61
2022/02/16 04:05:24;0.00;0.00;0.62;0.00;0.00;0.62;2.27;1.30;;;17.40;27.50;;;;;;2245505;61;20370;-60
2022/02/16 04:08:10;0.00;0.00;0.62;0.00;0.00;0.62;1.50;0.90;;;17.40;27.50;;;;;;2245237;61;20637;-61
2022/02/16 04:10:55;0.00;0.00;0.62;0.00;0.00;0.62;3.57;1.00;;;17.40;27.60;;;;;;2245517;61;20369;-60
2022/02/16 04:13:41;0.00;0.00;0.62;0.00;0.00;0.62;1.80;0.90;;;17.30;27.50;;;;;;2245346;61;20357;-60
2022/02/16 04:16:27;0.00;0.00;0.62;0.00;0.00;0.62;2.53;1.00;;;17.30;27.60;;;;;;2244832;61;20369;-60
2022/02/16 04:19:13;0.00;0.00;0.62;0.00;0.00;0.62;2.57;1.10;;;17.30;27.70;;;;;;2245496;61;20605;-60
2022/02/16 04:22:00;0.00;0.00;0.62;0.00;0.00;0.62;1.43;0.90;;;17.30;27.80;;;;;;2245306;61;20369;-61
2022/02/16 04:24:45;0.00;0.00;0.62;0.00;0.00;0.62;2.63;0.90;;;17.30;27.80;;;;;;2245150;61;20726;-60
2022/02/16 04:27:30;0.00;0.00;0.62;0.00;0.00;0.62;1.67;0.80;;;17.30;27.80;;;;;;2245314;61;20393;-62
2022/02/16 04:30:15;0.00;0.00;0.62;0.00;0.00;0.62;1.57;0.97;;;17.30;27.90;;;;;;2245580;61;20381;-60
2022/02/16 04:33:00;0.00;0.00;0.62;0.00;0.00;0.62;2.80;1.17;;;17.30;27.90;;;;;;2245729;61;20365;-61
2022/02/16 04:35:46;0.00;0.00;0.62;0.00;0.00;0.62;2.17;1.30;;;17.30;27.90;;;;;;2245191;61;20360;-61
2022/02/16 04:38:31;0.00;0.00;0.62;0.00;0.00;0.62;1.80;1.00;;;17.30;28.00;;;;;;2244601;61;20429;-60
2022/02/16 04:41:16;0.00;0.00;0.62;0.00;0.00;0.62;1.70;1.00;;;17.30;28.00;;;;;;2248154;61;20357;-60
2022/02/16 04:44:01;0.00;0.00;0.62;0.00;0.00;0.62;1.47;0.83;;;17.30;28.00;;;;;;2245184;61;20402;-62
2022/02/16 04:46:45;0.00;0.00;0.62;0.00;0.00;0.62;4.30;1.10;;;17.30;28.00;;;;;;2230908;61;1044080;-61
2022/02/16 04:49:31;0.00;0.00;0.62;0.00;0.00;0.62;8.60;2.30;;;17.30;28.00;;;;;;2245776;61;20281;-61
2022/02/16 04:52:17;0.00;0.00;0.62;0.00;0.00;0.62;1.77;1.03;;;17.30;28.10;;;;;;2245084;61;20360;-62
2022/02/16 04:55:04;0.00;0.00;0.62;0.00;0.00;0.62;1.77;1.00;;;17.30;28.10;;;;;;2245867;61;20370;-62
2022/02/16 04:57:48;0.00;0.00;0.62;0.00;0.00;0.62;1.37;0.97;;;17.30;28.10;;;;;;2245278;61;20356;-60
2022/02/16 05:00:33;0.00;0.00;0.62;0.00;0.00;0.62;1.83;0.90;;;17.30;28.10;;;;;;2244955;61;20406;-61
2022/02/16 05:03:24;0.00;0.00;0.62;0.00;0.00;0.62;1.73;0.87;;;17.30;28.10;;;;;;2248301;61;20738;-61
2022/02/16 05:06:11;0.00;0.00;0.62;0.00;0.00;0.62;2.07;1.10;;;17.30;28.10;;;;;;2245434;61;20357;-62
2022/02/16 05:08:58;0.00;0.00;0.62;0.00;0.00;0.62;2.03;1.10;;;17.40;28.20;;;;;;2244961;61;20425;-60
2022/02/16 05:11:42;0.00;0.00;0.62;0.00;0.00;0.62;1.60;0.90;;;17.40;28.20;;;;;;2245554;61;20373;-61
2022/02/16 05:14:28;0.00;0.00;0.62;0.00;0.00;0.62;1.40;0.87;;;17.40;28.20;;;;;;2244924;61;20373;-61
2022/02/16 05:17:15;0.00;0.00;0.62;0.00;0.00;0.62;1.50;0.80;;;17.40;28.20;;;;;;2245464;61;20365;-62
2022/02/16 05:19:59;0.00;0.00;0.62;0.00;0.00;0.62;2.37;1.20;;;17.40;28.30;;;;;;2245191;61;20600;-60
2022/02/16 05:22:44;0.00;0.00;0.62;0.00;0.00;0.62;2.10;1.20;;;17.40;28.40;;;;;;2244557;61;20369;-61
2022/02/16 05:25:31;0.00;0.00;0.62;0.00;0.00;0.62;1.60;0.97;;;17.40;28.40;;;;;;2270579;61;20364;-61
2022/02/16 05:28:19;0.00;0.00;0.62;0.00;0.00;0.62;1.47;1.00;;;17.40;28.40;;;;;;2248872;61;20399;-61
2022/02/16 05:31:04;0.00;0.00;0.62;0.00;0.00;0.62;2.30;1.00;;;17.50;28.50;;;;;;2248997;61;20357;-62
2022/02/16 05:33:49;0.00;0.00;0.62;0.00;0.00;0.62;3.20;0.90;;;17.40;28.50;;;;;;2249424;61;20627;-62
2022/02/16 05:36:38;0.00;0.00;0.62;0.00;0.00;0.62;4.10;1.00;;;17.50;28.60;;;;;;2248988;61;20708;-62
2022/02/16 05:39:23;0.00;0.00;0.62;0.00;0.00;0.62;3.10;1.70;;;17.50;28.60;;;;;;2249151;61;20385;-61
2022/02/16 05:42:10;0.00;0.00;0.62;0.00;0.00;0.62;1.93;1.23;;;17.50;28.60;;;;;;2249056;61;20395;-61
2022/02/16 05:45:00;0.00;0.00;0.62;0.00;0.00;0.62;2.17;1.17;;;17.50;28.60;;;;;;2248912;61;20377;-61
2022/02/16 05:47:45;0.00;0.00;0.62;0.00;0.00;0.62;2.17;1.40;;;17.50;28.50;;;;;;2249341;61;20392;-62
2022/02/16 05:50:30;0.00;0.00;0.62;0.00;0.00;0.62;4.07;2.90;;;17.50;28.50;;;;;;2249031;61;20380;-61
2022/02/16 05:53:14;0.00;0.00;0.62;0.00;0.00;0.62;4.70;2.30;;;17.50;28.60;;;;;;2248981;61;20769;-62
2022/02/16 05:55:59;0.00;0.00;0.62;0.00;0.00;0.62;4.50;2.90;;;17.50;28.50;;;;;;2249280;61;20681;-61
2022/02/16 05:58:46;0.00;0.00;0.62;0.00;0.00;0.62;6.93;2.90;;;17.50;28.50;;;;;;2248776;61;20403;-61
2022/02/16 06:01:31;0.00;0.00;0.62;0.00;0.00;0.62;5.20;2.93;;;17.50;28.50;;;;;;2249287;61;20373;-62
2022/02/16 06:04:21;0.00;0.00;0.62;0.00;0.00;0.62;4.30;2.70;;;17.50;28.50;;;;;;2248936;61;20469;-62
2022/02/16 06:07:06;0.00;0.00;0.62;0.00;0.00;0.62;4.27;2.37;;;17.50;28.60;;;;;;2248762;61;20441;-62
2022/02/16 06:09:52;0.00;0.00;0.62;0.00;0.00;0.62;2.50;2.10;;;17.50;28.50;;;;;;2249321;61;20396;-60
2022/02/16 06:12:39;0.00;0.00;0.62;0.00;0.00;0.62;3.63;2.37;;;17.50;28.50;;;;;;2249100;61;20445;-60
2022/02/16 06:15:26;0.00;0.00;0.62;0.00;0.00;0.62;3.00;1.80;;;17.60;28.40;;;;;;2248857;61;20384;-61
2022/02/16 06:18:11;0.00;0.00;0.62;0.00;0.00;0.62;3.10;1.97;;;17.60;28.40;;;;;;2249029;61;20477;-62
2022/02/16 06:20:56;0.00;0.00;0.62;0.00;0.00;0.62;2.80;1.80;;;17.60;28.30;;;;;;2248980;61;20401;-62
2022/02/16 06:23:41;0.00;0.00;0.62;0.00;0.00;0.62;3.20;1.90;;;17.70;28.20;;;;;;2249090;61;20587;-61
2022/02/16 06:26:25;0.00;0.00;0.62;0.00;0.00;0.62;2.63;1.63;;;17.70;28.10;;;;;;2248783;61;20364;-62
2022/02/16 06:29:10;0.00;0.00;0.62;0.00;0.00;0.62;4.23;2.20;;;17.70;28.10;;;;;;2248685;61;21045;-61
2022/02/16 06:32:11;0.00;0.00;0.62;0.00;0.00;0.62;4.00;1.90;;;17.80;28.10;;;;;;2249050;61;20361;-61
2022/02/16 06:34:56;0.00;0.00;0.62;0.00;0.00;0.62;3.10;1.67;;;17.90;28.10;;;;;;2249482;61;20485;-63
2022/02/16 06:37:40;0.00;0.00;0.62;0.00;0.00;0.62;3.17;1.80;;;17.90;28.00;;;;;;2248712;61;20385;-63
2022/02/16 06:40:27;0.00;0.00;0.62;0.00;0.00;0.62;3.87;1.83;;;18.00;28.00;;;;;;2249407;61;20360;-62
2022/02/16 06:43:14;0.00;0.00;0.62;0.00;0.00;0.62;2.70;1.57;;;18.00;27.90;;;;;;2248848;61;20420;-60
2022/02/16 06:45:59;0.00;0.00;0.62;0.00;0.00;0.62;4.87;2.30;;;18.10;28.50;;;;;;2248884;61;20500;-60
2022/02/16 06:48:46;0.00;0.00;0.62;0.00;0.00;0.62;2.77;1.70;;;18.10;27.90;;;;;;2248800;61;21094;-61
2022/02/16 06:51:30;0.00;0.00;0.62;0.00;0.00;0.62;2.47;1.47;;;18.10;27.90;;;;;;2248981;61;20365;-62
2022/02/16 06:54:16;0.00;0.00;0.62;0.00;0.00;0.62;2.40;1.50;;;18.10;27.80;;;;;;2249015;61;20403;-61
2022/02/16 06:57:01;0.00;0.00;0.62;0.00;0.00;0.62;2.40;2.00;;;18.20;27.80;;;;;;2249446;61;20368;-61
2022/02/16 07:00:10;0.00;0.00;0.62;0.00;0.00;0.62;1.63;1.10;;;18.20;27.80;;;;;;2248775;61;20589;-61
2022/02/16 07:02:55;0.00;0.00;0.62;0.00;0.00;0.62;2.40;1.60;;;18.30;27.80;;;;;;2249092;61;20457;-61
2022/02/16 07:05:48;0.00;0.00;0.62;0.00;0.00;0.62;2.70;1.70;;;18.30;27.80;;;;;;2248867;61;20712;-61
2022/02/16 07:08:40;0.00;0.00;0.62;0.00;0.00;0.62;2.33;1.60;;;18.30;27.70;;;;;;2248857;61;20401;-61
2022/02/16 07:11:24;0.00;0.00;0.62;0.00;0.00;0.62;2.57;1.70;;;18.40;27.70;;;;;;2248979;61;20400;-62
2022/02/16 07:14:09;0.00;0.00;0.62;0.00;0.00;0.62;2.07;1.20;;;18.40;27.70;;;;;;2248370;61;20368;-62
2022/02/16 07:16:56;0.00;0.00;0.62;0.00;0.00;0.62;2.73;1.50;;;18.40;27.60;;;;;;2249112;61;20405;-62
2022/02/16 07:19:41;0.00;0.00;0.62;0.00;0.00;0.62;2.13;1.27;;;18.50;27.70;;;;;;2248728;61;20600;-60
2022/02/16 07:22:38;0.00;0.00;0.62;0.00;0.00;0.62;2.60;1.80;;;18.50;27.70;;;;;;2248722;61;20709;-63
2022/02/16 07:25:25;0.00;0.00;0.62;0.00;0.00;0.62;5.57;1.90;;;18.50;27.60;;;;;;2249188;61;20380;-62
2022/02/16 07:28:10;0.00;0.00;0.62;0.00;0.00;0.62;2.93;1.40;;;18.60;27.60;;;;;;2248185;61;20388;-62
2022/02/16 07:30:56;0.00;0.00;0.62;0.00;0.00;0.62;2.20;1.37;;;18.60;27.60;;;;;;2249138;61;20377;-62
2022/02/16 07:33:41;0.00;0.00;0.62;0.00;0.00;0.62;2.40;1.60;;;18.60;27.50;;;;;;2248861;61;20445;-60
2022/02/16 07:36:25;0.00;0.00;0.62;0.00;0.00;0.62;2.70;1.50;;;18.70;27.60;;;;;;2248901;61;20368;-60
2022/02/16 07:39:13;0.00;0.00;0.62;0.00;0.00;0.62;2.10;1.23;;;18.70;27.50;;;;;;2248954;61;20407;-60
2022/02/16 07:42:01;0.00;0.00;0.62;0.00;0.00;0.62;2.43;1.87;;;18.70;27.50;;;;;;2248508;61;20841;-62
2022/02/16 07:45:07;0.00;0.00;0.62;0.00;0.00;0.62;2.10;1.43;;;18.70;27.50;;;;;;2249309;61;20364;-61
2022/02/16 07:47:53;0.00;0.00;0.62;0.00;0.00;0.62;2.53;1.27;;;18.80;27.50;;;;;;2248582;61;20771;-60
2022/02/16 07:50:37;0.00;0.00;0.62;0.00;0.00;0.62;1.90;1.30;;;18.80;27.40;;;;;;2248447;61;20356;-61
2022/02/16 07:53:41;0.00;0.00;0.62;0.00;0.00;0.62;2.30;1.20;;;18.80;27.40;;;;;;2249373;61;20360;-62
2022/02/16 07:56:27;0.00;0.00;0.62;0.00;0.00;0.62;1.87;1.07;;;18.90;27.50;;;;;;2248758;61;20360;-62
2022/02/16 07:59:12;0.00;0.00;0.62;0.00;0.00;0.62;1.77;1.10;;;18.90;27.40;;;;;;2248667;61;20753;-62
2022/02/16 08:01:57;0.00;0.00;0.62;0.00;0.00;0.62;2.20;1.60;;;18.90;27.40;;;;;;2249010;61;20744;-61
2022/02/16 08:04:43;0.00;0.00;0.62;0.00;0.00;0.62;2.53;1.43;;;18.90;27.40;;;;;;2248476;61;20362;-62
2022/02/16 08:07:29;0.00;0.00;0.62;0.00;0.00;0.62;3.40;0.90;;;18.90;27.30;;;;;;2249247;61;20432;-62
2022/02/16 08:10:14;0.00;0.00;0.62;0.00;0.00;0.62;2.10;1.07;;;19.00;27.40;;;;;;2248493;61;20388;-62
2022/02/16 08:13:00;0.00;0.00;0.62;0.00;0.00;0.62;1.60;1.10;;;19.00;27.40;;;;;;2248316;61;20360;-60
2022/02/16 08:16:08;0.00;0.00;0.62;0.00;0.00;0.62;1.60;1.00;;;19.00;27.30;;;;;;2249381;61;20407;-61
2022/02/16 08:18:54;0.00;0.00;0.62;0.00;0.00;0.62;1.70;0.90;;;19.10;27.30;;;;;;2248401;61;20372;-60
2022/02/16 08:21:42;0.00;0.00;0.62;0.00;0.00;0.62;1.90;1.30;;;19.10;27.30;;;;;;2249483;61;20638;-60
2022/02/16 08:24:27;0.00;0.00;0.62;0.00;0.00;0.62;1.80;1.10;;;19.10;27.30;;;;;;2249526;61;20376;-60
2022/02/16 08:27:15;0.00;0.00;0.62;0.00;0.00;0.62;1.67;1.07;;;19.10;27.30;;;;;;2249109;61;20365;-62
2022/02/16 08:30:07;0.00;0.00;0.62;0.00;0.00;0.62;1.77;1.10;;;19.10;27.20;;;;;;2249785;61;20424;-62
2022/02/16 08:32:53;0.00;0.00;0.62;0.00;0.00;0.62;1.80;0.90;;;19.20;27.30;;;;;;2249302;61;20372;-60
2022/02/16 08:35:54;0.00;0.00;0.62;0.00;0.00;0.62;1.93;0.90;;;19.20;27.20;;;;;;2249132;61;20360;-61
2022/02/16 08:38:40;0.00;0.00;0.62;0.00;0.00;0.62;1.67;0.97;;;19.20;27.20;;;;;;2249756;61;20412;-61
2022/02/16 08:41:24;0.00;0.00;0.62;0.00;0.00;0.62;1.30;0.87;;;19.20;27.20;;;;;;2249568;61;20775;-61
2022/02/16 08:44:09;0.00;0.00;0.62;0.00;0.00;0.62;1.60;1.00;;;19.20;27.20;;;;;;2249784;61;20412;-62
2022/02/16 08:46:55;0.00;0.00;0.62;0.00;0.00;0.62;1.43;0.90;;;19.30;27.20;;;;;;2249481;61;20388;-62
2022/02/16 08:49:43;0.00;0.00;0.62;0.00;0.00;0.62;1.50;0.70;;;19.30;27.20;;;;;;2249371;61;20392;-61
2022/02/16 08:52:28;0.00;0.00;0.62;0.00;0.00;0.62;1.43;0.93;;;19.30;27.20;;;;;;2249745;61;20621;-60
2022/02/16 08:55:12;0.00;0.00;0.62;0.00;0.00;0.62;1.70;1.00;;;19.30;27.10;;;;;;2249727;61;20405;-60
2022/02/16 08:57:57;0.00;0.00;0.62;0.00;0.00;0.62;1.83;1.13;;;19.30;27.10;;;;;;2249295;61;20356;-61
2022/02/16 09:00:42;0.00;0.00;0.62;0.00;0.00;0.62;1.70;1.00;;;19.40;27.20;;;;;;2249843;61;20632;-61
2022/02/16 09:03:29;0.00;0.00;0.62;0.00;0.00;0.62;1.50;0.80;;;19.40;27.20;;;;;;2248980;61;20412;-61
2022/02/16 09:06:14;0.00;0.00;0.62;0.00;0.00;0.62;1.40;0.80;;;19.40;27.10;;;;;;2249630;61;20396;-60
2022/02/16 09:08:59;0.00;0.00;0.62;0.00;0.00;0.62;2.03;1.20;;;19.40;27.00;;;;;;2249737;61;20401;-60
2022/02/16 09:11:43;0.00;0.00;0.62;0.00;0.00;0.62;1.63;0.90;;;19.40;27.00;;;;;;2249391;61;20363;-60
2022/02/16 09:14:28;0.00;0.00;0.62;0.00;0.00;0.62;1.60;0.93;;;19.40;27.00;;;;;;2249777;61;20641;-60
2022/02/16 09:17:13;0.00;0.00;0.62;0.00;0.00;0.62;1.30;0.80;;;19.40;27.00;;;;;;2249587;61;20732;-62
2022/02/16 09:19:58;0.00;0.00;0.62;0.00;0.00;0.62;1.27;0.70;;;19.50;27.00;;;;;;2249328;61;20377;-62
2022/02/16 09:22:44;0.00;0.00;0.62;0.00;0.00;0.62;1.50;0.90;;;19.50;27.00;;;;;;2249694;61;20710;-60
2022/02/16 09:25:30;0.00;0.00;0.62;0.00;0.00;0.62;1.50;0.80;;;19.50;27.00;;;;;;2249877;61;20361;-60
2022/02/16 09:28:15;0.00;0.00;0.62;0.00;0.00;0.62;1.40;0.70;;;19.60;27.10;;;;;;2249277;61;20605;-61
2022/02/16 09:31:00;0.00;0.00;0.62;0.00;0.00;0.62;1.50;0.80;;;19.50;27.00;;;;;;2249193;61;20395;-62
2022/02/16 09:33:45;0.00;0.00;0.62;0.00;0.00;0.62;1.50;0.70;;;19.60;27.00;;;;;;2249654;61;20403;-62
2022/02/16 09:36:32;0.00;0.00;0.62;0.00;0.00;0.62;1.40;0.70;;;19.60;27.00;;;;;;2249900;61;20376;-61
2022/02/16 09:39:16;0.00;0.00;0.62;0.00;0.00;0.62;2.17;0.80;;;19.60;27.00;;;;;;2249525;61;20376;-62
2022/02/16 09:42:01;0.00;0.00;0.62;0.00;0.00;0.62;1.30;0.70;;;19.60;26.90;;;;;;2249118;61;20388;-62
2022/02/16 09:44:53;0.00;0.00;0.62;0.00;0.00;0.62;1.50;0.80;;;19.60;26.90;;;;;;2249716;61;20822;-62
2022/02/16 09:47:44;0.00;0.00;0.62;0.00;0.00;0.62;1.43;0.70;;;19.60;26.90;;;;;;2249532;61;20428;-61
2022/02/16 09:50:29;0.00;0.00;0.62;0.00;0.00;0.62;1.30;0.70;;;19.70;27.00;;;;;;2249328;61;20469;-62
2022/02/16 09:53:15;0.00;0.00;0.62;0.00;0.00;0.62;1.30;0.73;;;19.70;27.00;;;;;;2249631;61;20401;-62
2022/02/16 09:56:00;0.00;0.00;0.62;0.00;0.00;0.62;1.57;0.80;;;19.70;26.90;;;;;;2249612;61;20477;-60
2022/02/16 09:58:44;0.00;0.00;0.62;0.00;0.00;0.62;1.40;0.77;;;19.70;26.90;;;;;;2249672;61;20373;-61
2022/02/16 10:01:29;0.00;0.00;0.62;0.00;0.00;0.62;1.40;0.90;;;19.70;26.90;;;;;;2249694;61;20569;-63
2022/02/16 10:04:13;0.00;0.00;0.62;0.00;0.00;0.62;1.30;0.80;;;19.80;27.00;;;;;;2249016;61;20404;-61
2022/02/16 10:06:59;0.00;0.00;0.62;0.00;0.00;0.62;1.30;0.67;;;19.80;26.90;;;;;;2249638;61;20634;-61
2022/02/16 10:09:45;0.00;0.00;0.62;0.00;0.00;0.62;1.20;0.70;;;19.80;26.90;;;;;;2249495;61;20380;-62
2022/02/16 10:12:33;0.00;0.00;0.62;0.00;0.00;0.62;1.97;0.63;;;19.80;26.90;;;;;;2249394;61;20812;-60
2022/02/16 10:15:21;0.00;0.00;0.62;0.00;0.00;0.62;1.70;0.70;;;19.80;26.90;;;;;;2249573;61;20376;-62
2022/02/16 10:18:13;0.00;0.00;0.62;0.00;0.00;0.62;1.60;0.80;;;19.80;26.90;;;;;;2249354;61;20385;-62
2022/02/16 10:21:09;0.00;0.00;0.62;0.00;0.00;0.62;1.20;0.60;;;19.80;26.90;;;;;;2249900;61;20441;-62
2022/02/16 10:23:53;0.00;0.00;0.62;0.00;0.00;0.62;1.50;0.80;;;19.80;26.90;;;;;;2248987;61;20365;-61
2022/02/16 10:26:50;0.00;0.00;0.62;0.00;0.00;0.62;1.40;0.60;;;19.90;26.90;;;;;;2249181;61;20785;-60
2022/02/16 10:29:35;0.00;0.00;0.62;0.00;0.00;0.62;1.40;1.00;;;19.90;26.90;;;;;;2249625;61;20385;-62
2022/02/16 10:32:28;0.00;0.00;0.62;0.00;0.00;0.62;1.20;0.60;;;19.80;26.80;;;;;;2249072;61;20388;-62
2022/02/16 10:35:12;0.00;0.00;0.62;0.00;0.00;0.62;1.50;0.70;;;19.90;26.90;;;;;;2249424;61;20372;-61
2022/02/16 10:38:01;0.00;0.00;0.62;0.00;0.00;0.62;1.20;0.60;;;19.90;26.80;;;;;;2249112;61;20369;-61
2022/02/16 10:41:03;0.00;0.00;0.62;0.00;0.00;0.62;1.30;0.80;;;19.90;26.80;;;;;;2249002;61;20436;-62
2022/02/16 10:43:51;0.00;0.00;0.62;0.00;0.00;0.62;1.60;0.90;;;19.90;26.80;;;;;;2249519;61;20360;-62
2022/02/16 10:46:37;0.00;0.00;0.62;0.00;0.00;0.62;1.40;0.70;;;19.90;26.80;;;;;;2249183;61;20376;-62
2022/02/16 10:49:23;0.00;0.00;0.62;0.00;0.00;0.62;1.30;0.77;;;19.90;26.80;;;;;;2249184;61;20408;-62
2022/02/16 10:52:12;0.00;0.00;0.62;0.00;0.00;0.62;1.20;0.60;;;20.00;26.90;;;;;;2249471;61;20481;-61
2022/02/16 10:54:59;0.00;0.00;0.62;0.00;0.00;0.62;2.13;0.70;;;20.00;27.40;;;;;;2249011;61;20360;-60
2022/02/16 10:57:44;0.00;0.00;0.62;0.00;0.00;0.62;1.57;1.00;;;20.00;26.80;;;;;;2249668;61;20365;-60